Time;durP1;ratioP1;P1;durP2;ratioP2;P2;SDS_P1;SDS_P2;PMS_P1;PMS_P2;Temp;Humidity;BMP_temperature;BMP_pressure;BME280_temperature;BME280_humidity;BME280_pressure;Samples;Min_cycle;Max_cycle;Signal;HPM_P1;HPM_P2
2023/05/04 00:00:15;;;;;;;6.82;1.15;;;16.50;92.70;;;;;;5019817;28;20034;-65
2023/05/04 00:02:43;;;;;;;4.45;0.80;;;16.60;91.60;;;;;;5020701;28;20018;-64
2023/05/04 00:05:11;;;;;;;2.80;0.73;;;16.60;91.40;;;;;;5021071;28;20022;-64
2023/05/04 00:07:38;;;;;;;6.30;0.98;;;16.60;91.70;;;;;;5034038;28;20025;-65
2023/05/04 00:10:06;;;;;;;7.95;1.02;;;16.80;92.30;;;;;;5048338;28;20025;-65
2023/05/04 00:12:34;;;;;;;2.53;0.77;;;16.90;92.30;;;;;;5033093;28;20029;-65
2023/05/04 00:15:01;;;;;;;5.40;1.52;;;17.10;87.80;;;;;;5032809;28;20390;-64
2023/05/04 00:17:29;;;;;;;2.80;0.60;;;17.30;90.70;;;;;;5032398;28;20493;-65
2023/05/04 00:19:56;;;;;;;6.75;0.80;;;17.40;87.20;;;;;;5037673;28;20370;-66
2023/05/04 00:22:23;;;;;;;3.05;0.77;;;17.50;83.60;;;;;;5053084;28;20025;-66
2023/05/04 00:24:51;;;;;;;1.95;0.95;;;17.60;87.10;;;;;;5052650;28;20478;-66
2023/05/04 00:27:18;;;;;;;3.63;0.73;;;17.60;81.90;;;;;;5052616;28;20047;-65
2023/05/04 00:29:46;;;;;;;2.03;0.43;;;17.60;83.80;;;;;;5052398;28;20441;-65
2023/05/04 00:32:13;;;;;;;3.38;0.60;;;17.60;81.00;;;;;;5029139;28;20057;-66
2023/05/04 00:34:40;;;;;;;2.33;0.60;;;17.70;81.50;;;;;;5032073;28;20060;-66
2023/05/04 00:37:08;;;;;;;4.50;0.70;;;17.70;83.10;;;;;;5025774;28;20136;-65
2023/05/04 00:39:35;;;;;;;3.88;0.70;;;17.80;82.30;;;;;;5021786;28;20018;-66
2023/05/04 00:42:03;;;;;;;2.15;0.40;;;17.90;81.80;;;;;;5020392;28;20462;-66
2023/05/04 00:44:30;;;;;;;3.00;0.70;;;17.90;81.50;;;;;;5021379;28;20463;-66
2023/05/04 00:46:58;;;;;;;2.35;0.55;;;18.00;81.00;;;;;;5018680;28;20044;-65
2023/05/04 00:49:26;;;;;;;3.35;0.55;;;18.10;79.30;;;;;;5021300;28;20076;-66
2023/05/04 00:51:56;;;;;;;5.00;0.63;;;18.10;81.80;;;;;;5020617;28;20057;-66
2023/05/04 00:54:23;;;;;;;4.20;0.80;;;18.10;79.90;;;;;;5021150;28;20025;-66
2023/05/04 00:56:51;;;;;;;3.97;0.80;;;18.20;82.40;;;;;;5023110;28;20018;-65
2023/05/04 00:59:18;;;;;;;3.72;0.77;;;18.20;79.20;;;;;;5019728;28;20307;-65
2023/05/04 01:01:46;;;;;;;3.25;0.68;;;18.30;81.80;;;;;;5017490;28;20038;-67
2023/05/04 01:04:14;;;;;;;4.10;1.02;;;18.20;79.90;;;;;;5012123;28;20061;-67
2023/05/04 01:06:56;;;;;;;3.45;0.52;;;18.30;78.40;;;;;;5012103;28;20034;-66
2023/05/04 01:09:33;;;;;;;1.60;0.70;;;18.30;80.00;;;;;;5019449;28;20491;-65
2023/05/04 01:12:12;;;;;;;2.78;0.60;;;18.40;81.20;;;;;;5026257;28;20052;-67
2023/05/04 01:14:40;;;;;;;0.98;0.38;;;18.50;81.40;;;;;;5020124;28;20475;-68
2023/05/04 01:17:08;;;;;;;2.17;0.60;;;18.60;80.00;;;;;;5020071;28;20037;-66
2023/05/04 01:19:36;;;;;;;2.65;0.70;;;18.50;80.60;;;;;;5023834;28;20104;-66
2023/05/04 01:22:03;;;;;;;2.83;0.60;;;18.60;81.50;;;;;;5028713;28;20490;-67
2023/05/04 01:24:32;;;;;;;2.55;0.70;;;18.70;80.40;;;;;;5018207;28;20089;-67
2023/05/04 01:27:23;;;;;;;2.72;0.52;;;18.80;80.10;;;;;;5023562;28;20030;-65
2023/05/04 01:30:13;;;;;;;2.75;0.60;;;18.80;78.60;;;;;;5018260;28;20029;-66
2023/05/04 01:32:42;;;;;;;2.60;1.00;;;18.80;79.20;;;;;;5022307;28;20017;-65
2023/05/04 01:35:13;;;;;;;1.60;0.85;;;18.80;78.50;;;;;;5020061;28;20033;-65
2023/05/04 01:37:40;;;;;;;4.45;0.77;;;18.80;80.40;;;;;;5045199;28;20028;-65
2023/05/04 01:40:08;;;;;;;2.90;0.50;;;18.90;79.50;;;;;;5026373;28;20047;-65
2023/05/04 01:42:36;;;;;;;3.88;0.75;;;18.90;78.10;;;;;;5021244;28;20053;-66
2023/05/04 01:45:03;;;;;;;2.03;0.70;;;18.90;77.00;;;;;;5020961;28;20022;-67
2023/05/04 01:47:31;;;;;;;5.55;2.08;;;18.90;76.50;;;;;;5036700;28;20053;-68
2023/05/04 01:49:58;;;;;;;1.85;0.60;;;18.90;77.00;;;;;;5041400;28;20040;-66
2023/05/04 01:52:26;;;;;;;2.85;0.60;;;19.00;76.00;;;;;;5045535;28;20382;-65
2023/05/04 01:54:53;;;;;;;5.30;0.95;;;18.80;76.30;;;;;;5039979;28;20567;-65
2023/05/04 01:57:21;;;;;;;1.40;0.43;;;18.80;78.20;;;;;;5044995;28;20037;-66
2023/05/04 01:59:48;;;;;;;1.83;0.52;;;19.00;80.20;;;;;;5044389;28;20122;-66
2023/05/04 02:02:16;;;;;;;2.80;0.63;;;19.20;78.80;;;;;;5029161;28;20029;-67
2023/05/04 02:04:43;;;;;;;1.80;0.55;;;19.30;74.80;;;;;;5045825;28;20017;-67
2023/05/04 02:07:11;;;;;;;0.93;0.50;;;19.20;76.50;;;;;;5018452;28;20026;-66
2023/05/04 02:09:39;;;;;;;1.40;0.60;;;19.20;75.10;;;;;;5046125;28;20025;-66
2023/05/04 02:12:06;;;;;;;2.95;0.50;;;19.10;77.40;;;;;;5035124;28;20032;-66
2023/05/04 02:14:34;;;;;;;3.67;0.75;;;19.00;75.00;;;;;;5032675;28;20428;-66
2023/05/04 02:17:01;;;;;;;2.60;0.57;;;19.10;76.90;;;;;;5056516;28;20098;-66
2023/05/04 02:19:29;;;;;;;2.30;0.55;;;19.20;75.30;;;;;;5045639;28;20099;-66
2023/05/04 02:21:56;;;;;;;3.45;0.60;;;19.20;77.30;;;;;;5037216;28;20454;-66
2023/05/04 02:24:24;;;;;;;1.75;0.68;;;19.40;77.10;;;;;;5018113;28;20108;-66
2023/05/04 02:26:51;;;;;;;1.80;0.50;;;19.50;78.10;;;;;;5045597;28;20029;-66
2023/05/04 02:29:18;;;;;;;4.03;0.57;;;19.50;78.50;;;;;;5045099;28;20037;-66
2023/05/04 02:31:46;;;;;;;4.18;1.38;;;19.70;76.30;;;;;;5038955;28;20021;-66
2023/05/04 02:34:13;;;;;;;0.85;0.40;;;19.60;75.70;;;;;;5033621;28;20454;-66
2023/05/04 02:36:41;;;;;;;2.10;0.80;;;19.70;77.00;;;;;;5025096;28;20033;-66
2023/05/04 02:39:08;;;;;;;1.95;0.40;;;19.80;77.90;;;;;;5021548;28;20032;-66
2023/05/04 02:41:36;;;;;;;1.45;0.60;;;19.90;75.40;;;;;;5024916;28;20029;-66
2023/05/04 02:44:03;;;;;;;3.08;0.65;;;19.80;73.80;;;;;;5025898;28;20032;-66
2023/05/04 02:46:31;;;;;;;3.00;1.27;;;19.60;75.20;;;;;;5040032;28;20029;-66
2023/05/04 02:48:58;;;;;;;1.67;0.47;;;19.70;73.90;;;;;;5024501;28;20041;-70
2023/05/04 02:51:26;;;;;;;1.25;0.52;;;19.60;73.60;;;;;;5039414;28;20093;-73
2023/05/04 02:53:53;;;;;;;3.50;1.02;;;19.70;74.10;;;;;;5034045;28;20025;-70
2023/05/04 02:56:21;;;;;;;3.05;0.47;;;19.50;73.00;;;;;;5042698;28;20024;-71
2023/05/04 02:58:48;;;;;;;5.50;0.65;;;19.30;73.80;;;;;;5022142;28;20087;-71
2023/05/04 03:01:16;;;;;;;1.05;0.40;;;19.50;77.00;;;;;;5017108;28;20055;-71
2023/05/04 03:03:43;;;;;;;1.10;0.47;;;19.60;79.10;;;;;;5042819;28;20092;-69
2023/05/04 03:06:11;;;;;;;2.42;0.60;;;19.80;76.70;;;;;;5056053;28;20031;-70
2023/05/04 03:08:38;;;;;;;4.53;0.60;;;19.90;75.40;;;;;;5041178;28;20052;-69
2023/05/04 03:11:05;;;;;;;3.15;0.63;;;20.00;73.90;;;;;;5061681;28;20074;-70
2023/05/04 03:13:33;;;;;;;0.60;0.40;;;20.00;74.90;;;;;;5051923;28;20032;-70
2023/05/04 03:16:01;;;;;;;6.03;1.38;;;20.10;74.80;;;;;;5029270;28;20052;-69
2023/05/04 03:18:31;;;;;;;1.20;0.50;;;20.20;73.00;;;;;;5036577;28;20021;-69
2023/05/04 03:20:58;;;;;;;3.95;0.63;;;20.10;74.80;;;;;;5038697;28;20072;-70
2023/05/04 03:23:26;;;;;;;2.08;0.50;;;20.10;73.40;;;;;;5041352;28;20538;-70
2023/05/04 03:25:53;;;;;;;3.90;0.52;;;19.90;73.00;;;;;;5045679;28;20117;-71
2023/05/04 03:28:21;;;;;;;2.15;0.50;;;20.00;74.40;;;;;;5040909;28;20052;-71
2023/05/04 03:30:48;;;;;;;2.03;0.50;;;20.20;78.60;;;;;;5039904;28;20029;-71
2023/05/04 03:33:15;;;;;;;2.65;0.60;;;20.20;73.10;;;;;;5036953;28;20036;-71
2023/05/04 03:35:43;;;;;;;1.48;0.47;;;20.20;72.30;;;;;;5044054;28;20029;-71
2023/05/04 03:38:10;;;;;;;2.53;1.33;;;20.20;71.70;;;;;;5028363;28;20101;-72
2023/05/04 03:40:38;;;;;;;4.10;0.63;;;20.30;73.50;;;;;;5038723;28;20511;-71
2023/05/04 03:43:05;;;;;;;2.72;0.73;;;20.40;74.70;;;;;;5041728;28;20021;-72
2023/05/04 03:45:33;;;;;;;3.15;0.52;;;20.40;74.00;;;;;;5046700;28;20385;-73
2023/05/04 03:48:00;;;;;;;4.18;0.60;;;20.60;73.80;;;;;;5037149;28;20037;-72
2023/05/04 03:50:28;;;;;;;3.65;0.77;;;20.70;72.50;;;;;;5047153;28;20168;-71
2023/05/04 03:52:55;;;;;;;2.08;0.60;;;20.70;70.60;;;;;;5040114;28;20021;-71
2023/05/04 03:55:23;;;;;;;2.60;0.77;;;20.70;71.00;;;;;;5041305;28;20030;-73
2023/05/04 03:57:50;;;;;;;1.92;0.50;;;20.70;73.10;;;;;;5042909;28;20021;-72
2023/05/04 04:00:18;;;;;;;6.82;0.90;;;20.80;74.80;;;;;;5025775;28;20209;-75
2023/05/04 04:02:46;;;;;;;2.08;0.63;;;20.80;71.80;;;;;;5043112;28;20525;-73
2023/05/04 04:05:13;;;;;;;2.15;0.90;;;20.70;73.30;;;;;;5042128;28;20029;-70
2023/05/04 04:07:40;;;;;;;1.63;0.55;;;20.60;72.30;;;;;;5040607;28;20105;-74
2023/05/04 04:10:09;;;;;;;1.42;0.40;;;20.70;73.10;;;;;;5037473;28;20079;-73
2023/05/04 04:12:36;;;;;;;2.88;0.50;;;20.70;71.40;;;;;;5059218;28;20018;-71
2023/05/04 04:15:04;;;;;;;0.95;0.35;;;20.60;71.10;;;;;;5053601;28;20067;-73
2023/05/04 04:17:31;;;;;;;2.95;0.80;;;20.70;74.50;;;;;;5032992;28;20511;-69
2023/05/04 04:19:59;;;;;;;3.20;0.60;;;20.60;71.30;;;;;;5013650;28;20115;-71
2023/05/04 04:22:26;;;;;;;2.53;0.50;;;20.60;71.20;;;;;;5015404;28;20121;-70
2023/05/04 04:24:54;;;;;;;2.35;0.45;;;20.50;71.60;;;;;;5042943;28;20055;-72
2023/05/04 04:27:21;;;;;;;4.30;0.70;;;20.70;73.80;;;;;;5046315;28;20031;-71
2023/05/04 04:29:49;;;;;;;1.20;0.38;;;20.80;74.00;;;;;;5038218;28;20013;-72
2023/05/04 04:32:16;;;;;;;1.92;0.50;;;20.90;71.80;;;;;;5035958;28;20021;-70
2023/05/04 04:34:44;;;;;;;2.72;0.75;;;20.80;70.50;;;;;;5044538;28;20031;-70
2023/05/04 04:37:11;;;;;;;4.05;1.77;;;20.80;71.70;;;;;;5044161;28;20067;-69
2023/05/04 04:39:39;;;;;;;2.90;0.75;;;20.80;71.10;;;;;;5043561;28;20025;-69
2023/05/04 04:42:07;;;;;;;2.28;0.70;;;20.90;73.30;;;;;;5031223;28;20040;-71
2023/05/04 04:44:35;;;;;;;2.15;0.65;;;20.80;71.00;;;;;;5032334;28;20067;-69
2023/05/04 04:47:02;;;;;;;2.80;0.50;;;20.90;72.70;;;;;;5042690;28;20076;-71
2023/05/04 04:49:30;;;;;;;1.58;0.40;;;21.00;72.10;;;;;;5020463;28;20138;-72
2023/05/04 04:51:57;;;;;;;8.38;0.70;;;21.00;70.60;;;;;;5040485;28;20089;-64
2023/05/04 04:54:26;;;;;;;2.85;0.68;;;21.00;72.30;;;;;;5045541;28;20106;-71
2023/05/04 04:56:53;;;;;;;1.10;0.32;;;21.00;70.80;;;;;;5048991;28;20028;-69
2023/05/04 04:59:23;;;;;;;1.75;0.38;;;20.90;72.70;;;;;;5042968;28;20084;-70
2023/05/04 05:01:51;;;;;;;2.53;0.63;;;20.90;71.60;;;;;;5035379;28;20029;-71
2023/05/04 05:04:21;;;;;;;1.45;0.57;;;20.90;71.80;;;;;;5019884;28;20095;-69
2023/05/04 05:06:48;;;;;;;2.20;0.68;;;20.80;71.50;;;;;;5038422;28;20108;-69
2023/05/04 05:09:16;;;;;;;2.67;0.68;;;20.80;71.50;;;;;;5021060;28;20044;-69
2023/05/04 05:11:43;;;;;;;2.70;0.47;;;20.70;71.70;;;;;;5032676;28;20064;-69
2023/05/04 05:14:11;;;;;;;2.33;0.50;;;20.60;71.60;;;;;;5042366;28;20060;-69
2023/05/04 05:16:38;;;;;;;1.88;0.55;;;20.50;72.80;;;;;;5031934;28;20029;-69
2023/05/04 05:19:06;;;;;;;2.53;0.57;;;20.40;72.70;;;;;;5032800;28;20025;-69
2023/05/04 05:21:33;;;;;;;3.92;0.50;;;20.30;73.10;;;;;;5043215;28;20036;-69
2023/05/04 05:24:01;;;;;;;2.25;0.40;;;20.10;73.70;;;;;;5039335;28;20037;-69
2023/05/04 05:26:29;;;;;;;1.88;0.40;;;19.80;74.10;;;;;;5030059;28;20033;-70
2023/05/04 05:28:56;;;;;;;4.72;0.70;;;19.60;75.40;;;;;;5038324;28;20720;-69
2023/05/04 05:31:24;;;;;;;2.35;0.82;;;19.50;78.10;;;;;;5024129;28;20029;-68
2023/05/04 05:33:52;;;;;;;1.92;0.70;;;19.30;79.60;;;;;;5039778;28;20030;-68
2023/05/04 05:36:20;;;;;;;2.63;0.50;;;19.20;80.50;;;;;;5018853;28;20028;-69
2023/05/04 05:38:47;;;;;;;2.30;0.65;;;19.10;81.20;;;;;;5036642;28;20110;-68
2023/05/04 05:41:15;;;;;;;1.13;0.50;;;19.00;82.50;;;;;;5025392;28;20033;-71
2023/05/04 05:43:42;;;;;;;2.58;0.50;;;19.10;82.40;;;;;;5038433;28;20028;-71
2023/05/04 05:46:10;;;;;;;1.10;0.45;;;19.10;82.60;;;;;;5039538;28;20067;-70
2023/05/04 05:48:37;;;;;;;2.70;0.45;;;19.10;80.40;;;;;;5053873;28;20044;-69
2023/05/04 05:51:05;;;;;;;2.20;0.68;;;19.10;81.10;;;;;;5039080;28;20072;-71
2023/05/04 05:53:32;;;;;;;3.22;1.15;;;19.00;81.60;;;;;;5027945;28;20017;-71
2023/05/04 05:56:00;;;;;;;1.80;0.60;;;19.00;81.60;;;;;;5044897;28;20363;-71
2023/05/04 05:58:27;;;;;;;2.72;0.70;;;18.90;83.40;;;;;;5027839;28;20029;-71
2023/05/04 06:00:55;;;;;;;2.17;0.47;;;18.90;83.00;;;;;;5047550;28;20075;-68
2023/05/04 06:03:22;;;;;;;4.20;0.68;;;18.90;83.60;;;;;;5046251;28;20020;-70
2023/05/04 06:05:50;;;;;;;3.17;0.70;;;18.80;83.40;;;;;;5024175;28;20029;-71
2023/05/04 06:08:17;;;;;;;1.45;0.50;;;18.80;84.60;;;;;;5028672;28;20394;-71
2023/05/04 06:10:44;;;;;;;3.97;0.80;;;18.80;84.80;;;;;;5036619;28;20025;-70
2023/05/04 06:13:12;;;;;;;1.73;0.50;;;18.70;83.90;;;;;;5045197;28;20486;-70
2023/05/04 06:15:39;;;;;;;2.22;0.68;;;18.60;83.20;;;;;;5024174;28;20028;-69
2023/05/04 06:18:07;;;;;;;1.58;0.50;;;18.60;84.10;;;;;;5036517;28;20425;-69
2023/05/04 06:20:34;;;;;;;2.67;0.73;;;18.50;85.30;;;;;;5034348;28;20476;-70
2023/05/04 06:23:02;;;;;;;1.98;0.60;;;18.40;86.20;;;;;;5037711;28;20603;-71
2023/05/04 06:25:30;;;;;;;2.25;0.70;;;18.30;88.10;;;;;;5044511;28;20029;-71
2023/05/04 06:27:57;;;;;;;5.05;0.70;;;18.30;87.90;;;;;;5042893;28;20065;-69
2023/05/04 06:30:25;;;;;;;4.03;1.10;;;18.30;87.10;;;;;;5029652;28;20418;-69
2023/05/04 06:32:52;;;;;;;3.03;0.60;;;18.20;89.20;;;;;;5039353;28;20038;-70
2023/05/04 06:35:20;;;;;;;1.85;0.70;;;18.10;90.20;;;;;;5046662;28;20044;-70
2023/05/04 06:37:47;;;;;;;1.85;0.60;;;18.00;90.40;;;;;;5040587;28;20435;-70
2023/05/04 06:40:15;;;;;;;5.93;1.35;;;17.90;90.90;;;;;;5041343;28;20037;-69
2023/05/04 06:42:42;;;;;;;3.17;0.95;;;17.80;91.70;;;;;;5040718;28;20028;-69
2023/05/04 06:45:10;;;;;;;2.38;1.10;;;17.70;92.40;;;;;;5034166;28;20022;-63
2023/05/04 06:47:38;;;;;;;1.45;0.60;;;17.70;92.60;;;;;;5046029;28;20088;-63
2023/05/04 06:50:10;;;;;;;3.95;1.00;;;17.70;94.20;;;;;;5047725;28;20044;-64
2023/05/04 06:52:43;;;;;;;2.63;0.68;;;17.60;95.40;;;;;;5044668;28;20596;-63
2023/05/04 06:55:12;;;;;;;3.72;0.88;;;17.60;96.90;;;;;;5043695;28;20053;-63
2023/05/04 06:57:40;;;;;;;5.60;1.00;;;17.60;97.80;;;;;;5040556;28;20021;-63
2023/05/04 07:00:09;;;;;;;3.33;0.63;;;17.60;98.30;;;;;;5039337;28;20037;-63
2023/05/04 07:02:36;;;;;;;1.77;0.70;;;17.50;99.40;;;;;;5028540;28;20501;-63
2023/05/04 07:05:04;;;;;;;5.03;0.88;;;17.40;99.80;;;;;;5041903;28;20037;-57
2023/05/04 07:07:32;;;;;;;2.78;1.10;;;17.30;99.90;;;;;;5026891;28;20378;-55
2023/05/04 07:09:59;;;;;;;5.25;1.30;;;17.20;99.90;;;;;;5042917;28;20055;-57
2023/05/04 07:12:27;;;;;;;1.83;0.75;;;17.20;99.90;;;;;;5045581;28;20029;-56
2023/05/04 07:14:55;;;;;;;5.53;0.57;;;17.10;99.90;;;;;;5041577;28;20081;-54
2023/05/04 07:17:24;;;;;;;2.67;0.57;;;17.00;99.90;;;;;;5039528;28;20100;-56
2023/05/04 07:19:52;;;;;;;2.17;0.60;;;16.90;99.90;;;;;;5043448;28;20506;-54
2023/05/04 07:22:19;;;;;;;2.17;0.90;;;16.70;99.90;;;;;;5036889;28;20112;-55
2023/05/04 07:24:47;;;;;;;1.73;0.70;;;16.60;99.90;;;;;;5042300;28;20871;-55
2023/05/04 07:27:14;;;;;;;3.72;0.80;;;16.50;99.90;;;;;;5035596;28;20556;-56
2023/05/04 07:29:42;;;;;;;3.50;0.90;;;16.50;99.90;;;;;;5016495;28;20088;-55
2023/05/04 07:32:09;;;;;;;6.22;1.17;;;16.40;99.90;;;;;;5034005;28;20041;-59
2023/05/04 07:34:37;;;;;;;4.85;1.30;;;16.40;99.90;;;;;;5038336;28;20205;-54
2023/05/04 07:37:04;;;;;;;4.00;1.58;;;16.20;99.90;;;;;;5043572;28;20159;-52
2023/05/04 07:39:35;;;;;;;3.17;0.60;;;16.00;99.90;;;;;;5026421;28;20445;-48
2023/05/04 07:42:03;;;;;;;3.75;0.90;;;15.80;99.90;;;;;;5040951;28;20082;-48
2023/05/04 07:44:31;;;;;;;9.75;1.10;;;15.70;99.90;;;;;;5038334;28;20021;-48
2023/05/04 07:47:00;;;;;;;8.45;1.00;;;15.60;99.90;;;;;;5035849;28;20044;-54
2023/05/04 07:49:28;;;;;;;5.88;0.80;;;15.40;99.90;;;;;;5046520;28;20163;-48
2023/05/04 07:51:55;;;;;;;3.90;1.05;;;15.30;99.90;;;;;;5038704;28;20068;-47
2023/05/04 07:54:23;;;;;;;2.05;0.75;;;15.30;99.90;;;;;;5039158;28;20606;-46
2023/05/04 07:56:50;;;;;;;3.10;1.13;;;15.30;99.90;;;;;;5037196;28;20107;-51
2023/05/04 07:59:18;;;;;;;2.50;1.60;;;15.20;99.90;;;;;;5044337;28;20934;-49
2023/05/04 08:01:46;;;;;;;4.93;1.30;;;15.20;99.90;;;;;;5039146;28;20040;-48
2023/05/04 08:04:13;;;;;;;7.35;0.95;;;15.20;99.90;;;;;;5028493;28;20028;-48
2023/05/04 08:06:41;;;;;;;3.92;0.98;;;15.20;99.90;;;;;;5025986;28;20037;-58
2023/05/04 08:09:08;;;;;;;4.35;1.00;;;15.10;99.90;;;;;;5044693;28;20028;-53
2023/05/04 08:11:36;;;;;;;3.13;1.67;;;15.00;99.90;;;;;;5030902;28;20083;-53
2023/05/04 08:14:04;;;;;;;4.00;0.90;;;14.90;99.90;;;;;;5048971;28;20017;-53
2023/05/04 08:16:31;;;;;;;3.13;1.00;;;14.80;99.90;;;;;;5046044;28;20017;-51
2023/05/04 08:19:00;;;;;;;5.60;1.20;;;14.70;99.90;;;;;;5036525;28;20029;-58
2023/05/04 08:21:27;;;;;;;8.75;1.10;;;14.70;99.90;;;;;;5022641;28;20040;-62
2023/05/04 08:23:55;;;;;;;4.30;1.10;;;14.70;99.90;;;;;;5040583;28;20033;-59
2023/05/04 08:26:23;;;;;;;5.03;2.28;;;14.60;99.90;;;;;;5040494;28;20505;-54
2023/05/04 08:28:50;;;;;;;2.38;1.00;;;14.40;99.90;;;;;;5048977;28;20351;-59
2023/05/04 08:31:18;;;;;;;3.30;1.33;;;14.30;99.90;;;;;;5048587;28;20041;-57
2023/05/04 08:33:46;;;;;;;2.40;0.88;;;14.10;99.90;;;;;;5037289;28;20115;-58
2023/05/04 08:36:13;;;;;;;4.95;1.38;;;14.00;99.90;;;;;;5024755;28;20778;-58
2023/05/04 08:38:41;;;;;;;7.80;1.73;;;13.80;99.90;;;;;;5042981;28;20033;-58
2023/05/04 08:41:09;;;;;;;28.75;2.40;;;13.60;99.90;;;;;;5047027;28;20410;-58
2023/05/04 08:43:37;;;;;;;6.78;1.80;;;13.40;99.90;;;;;;5023570;28;20501;-58
2023/05/04 08:46:06;;;;;;;6.78;1.38;;;13.20;99.90;;;;;;5044315;28;20899;-55
2023/05/04 08:48:34;;;;;;;5.40;1.73;;;13.10;99.90;;;;;;5047978;28;20489;-58
2023/05/04 08:51:05;;;;;;;3.28;1.55;;;12.90;99.90;;;;;;5044715;28;20024;-58
2023/05/04 08:53:35;;;;;;;3.38;1.33;;;12.80;99.90;;;;;;5037787;28;20017;-57
2023/05/04 08:56:08;;;;;;;5.43;1.40;;;12.60;99.90;;;;;;5027092;28;20098;-57
2023/05/04 08:58:50;;;;;;;6.22;1.15;;;12.50;99.90;;;;;;5040400;28;20482;-57
2023/05/04 09:01:19;;;;;;;3.20;1.40;;;12.30;99.90;;;;;;5043500;28;21104;-57
2023/05/04 09:03:48;;;;;;;6.55;1.80;;;12.30;99.90;;;;;;5038221;28;20024;-57
2023/05/04 09:06:15;;;;;;;4.82;1.60;;;12.20;99.90;;;;;;5020572;28;20394;-58
2023/05/04 09:08:43;;;;;;;6.20;1.40;;;12.20;99.90;;;;;;5037084;28;20024;-57
2023/05/04 09:11:10;;;;;;;5.90;1.13;;;12.10;99.90;;;;;;5037668;28;20032;-58
2023/05/04 09:13:38;;;;;;;3.78;1.17;;;12.00;99.90;;;;;;5034544;28;20169;-60
2023/05/04 09:16:06;;;;;;;5.03;1.10;;;11.90;99.90;;;;;;5043995;28;20106;-58
2023/05/04 09:18:38;;;;;;;3.47;1.50;;;11.80;99.90;;;;;;5035060;28;20363;-57
2023/05/04 09:21:06;;;;;;;4.60;1.70;;;11.80;99.90;;;;;;5034345;28;20045;-56
2023/05/04 09:23:44;;;;;;;4.07;1.38;;;11.70;99.90;;;;;;5048754;28;20020;-58
2023/05/04 09:26:12;;;;;;;3.47;1.20;;;11.70;99.90;;;;;;5038047;28;20025;-57
2023/05/04 09:28:40;;;;;;;4.25;1.42;;;11.60;99.90;;;;;;5048348;28;20028;-58
2023/05/04 09:31:07;;;;;;;8.50;1.40;;;11.60;99.90;;;;;;5037570;28;20033;-56
2023/05/04 09:33:35;;;;;;;6.53;1.85;;;11.50;99.90;;;;;;5031210;28;20034;-58
2023/05/04 09:36:16;;;;;;;6.13;1.98;;;11.50;99.90;;;;;;5042016;28;20057;-59
2023/05/04 09:38:44;;;;;;;8.25;1.98;;;11.40;99.90;;;;;;5040116;28;20027;-59
2023/05/04 09:41:12;;;;;;;5.40;1.50;;;11.40;99.90;;;;;;5041710;28;20048;-58
2023/05/04 09:43:41;;;;;;;6.25;1.40;;;11.30;99.90;;;;;;5043831;28;20053;-56
2023/05/04 09:46:17;;;;;;;4.20;1.42;;;11.40;99.90;;;;;;5012035;28;20030;-59
2023/05/04 09:48:55;;;;;;;11.82;1.48;;;11.30;99.90;;;;;;5040649;28;20053;-59
2023/05/04 09:51:26;;;;;;;7.63;1.80;;;11.30;99.90;;;;;;5042088;28;20025;-58
2023/05/04 09:53:53;;;;;;;4.07;1.90;;;11.30;99.90;;;;;;5042732;28;20088;-58
2023/05/04 09:56:32;;;;;;;5.22;1.33;;;11.30;99.90;;;;;;5035430;28;20104;-52
2023/05/04 09:59:00;;;;;;;7.60;1.30;;;11.30;99.90;;;;;;5041068;28;20035;-57
2023/05/04 10:01:30;;;;;;;6.90;2.42;;;11.30;99.90;;;;;;5043100;28;20055;-58
2023/05/04 10:03:58;;;;;;;11.82;1.70;;;11.20;99.90;;;;;;5034716;28;20178;-58
2023/05/04 10:06:31;;;;;;;7.82;1.88;;;11.10;99.90;;;;;;5040302;28;20024;-57
2023/05/04 10:09:02;;;;;;;11.23;2.70;;;11.10;99.90;;;;;;5026502;28;20033;-66
2023/05/04 10:11:31;;;;;;;8.80;2.08;;;11.00;99.90;;;;;;5043247;28;20054;-59
2023/05/04 10:13:59;;;;;;;7.75;2.50;;;11.00;99.90;;;;;;5045143;28;20164;-58
2023/05/04 10:16:26;;;;;;;9.35;1.95;;;10.90;99.90;;;;;;5020063;28;20033;-58
2023/05/04 10:19:02;;;;;;;7.20;2.83;;;10.90;99.90;;;;;;5036642;28;20029;-58
2023/05/04 10:21:33;;;;;;;11.18;3.03;;;10.90;99.90;;;;;;5041310;28;20075;-58
2023/05/04 10:24:06;;;;;;;14.52;3.55;;;10.90;99.90;;;;;;5034648;28;20383;-59
2023/05/04 10:27:12;;;;;;;32.10;5.82;;;10.80;99.90;;;;;;5036780;28;20028;-59
2023/05/04 10:29:41;;;;;;;32.17;5.00;;;11.00;99.90;;;;;;5031150;28;20030;-59
2023/05/04 10:32:22;;;;;;;18.08;5.63;;;11.00;99.90;;;;;;5034208;28;20060;-60
2023/05/04 10:34:50;;;;;;;23.65;5.07;;;11.10;99.90;;;;;;5030705;28;20556;-58
2023/05/04 10:37:20;;;;;;;21.85;4.63;;;11.10;99.90;;;;;;5034092;28;20017;-59
2023/05/04 10:39:55;;;;;;;10.07;2.20;;;11.10;99.90;;;;;;5020031;28;20035;-57
2023/05/04 10:42:22;;;;;;;13.65;2.55;;;11.00;99.90;;;;;;5036943;28;20036;-56
2023/05/04 10:44:51;;;;;;;23.80;4.60;;;11.00;99.90;;;;;;5037496;28;20044;-58
2023/05/04 10:47:31;;;;;;;25.48;4.30;;;10.90;99.90;;;;;;5032803;28;20049;-58
2023/05/04 10:50:10;;;;;;;20.30;4.40;;;10.90;99.90;;;;;;5034257;28;20033;-65
2023/05/04 10:52:52;;;;;;;24.60;5.03;;;10.70;99.90;;;;;;5035261;28;20041;-59
2023/05/04 10:55:21;;;;;;;18.58;3.85;;;10.60;99.90;;;;;;5035317;28;20025;-58
2023/05/04 10:57:51;;;;;;;20.77;3.60;;;10.50;99.90;;;;;;5041474;28;20042;-58
2023/05/04 11:00:19;;;;;;;12.23;4.13;;;10.50;99.90;;;;;;5037506;28;20041;-58
2023/05/04 11:02:48;;;;;;;9.20;3.55;;;10.40;99.90;;;;;;5035754;28;20028;-59
2023/05/04 11:05:18;;;;;;;12.10;3.00;;;10.40;99.90;;;;;;5025875;28;20029;-59
2023/05/04 11:07:51;;;;;;;9.50;2.08;;;10.40;99.90;;;;;;5041654;28;20159;-60
2023/05/04 11:10:26;;;;;;;11.40;3.05;;;10.30;99.90;;;;;;5026955;28;20088;-58
2023/05/04 11:13:01;;;;;;;14.85;2.50;;;10.30;99.90;;;;;;5036824;28;20385;-59
2023/05/04 11:15:30;;;;;;;8.35;2.50;;;10.30;99.90;;;;;;5038466;28;20095;-60
2023/05/04 11:17:58;;;;;;;5.10;2.17;;;10.30;99.90;;;;;;5034770;28;20033;-61
2023/05/04 11:20:28;;;;;;;6.63;2.72;;;10.30;99.90;;;;;;5037540;28;20040;-59
2023/05/04 11:22:55;;;;;;;5.95;1.98;;;10.20;99.90;;;;;;5026566;28;20397;-59
2023/05/04 11:25:31;;;;;;;9.95;2.67;;;10.20;99.90;;;;;;5044480;28;20031;-58
2023/05/04 11:27:59;;;;;;;18.73;3.20;;;10.20;99.90;;;;;;5040925;28;20036;-65
2023/05/04 11:30:36;;;;;;;15.27;3.35;;;10.20;99.90;;;;;;5036331;28;20104;-59
2023/05/04 11:33:11;;;;;;;18.17;3.40;;;10.20;99.90;;;;;;5042762;28;20029;-58
2023/05/04 11:35:39;;;;;;;21.02;4.95;;;10.10;99.90;;;;;;5037239;28;20501;-58
2023/05/04 11:38:07;;;;;;;30.20;4.40;;;10.20;99.90;;;;;;5045711;28;20687;-58
2023/05/04 11:40:39;;;;;;;35.05;4.43;;;10.20;99.90;;;;;;5039521;28;20044;-59
2023/05/04 11:43:11;;;;;;;18.27;3.72;;;10.20;99.90;;;;;;5040871;28;20048;-59
2023/05/04 11:45:41;;;;;;;13.43;3.15;;;10.30;99.90;;;;;;5036450;28;20037;-59
2023/05/04 11:48:09;;;;;;;11.80;2.25;;;10.40;99.90;;;;;;5032449;28;20049;-61
2023/05/04 11:50:37;;;;;;;11.82;2.88;;;10.50;99.90;;;;;;5037697;28;20032;-60
2023/05/04 11:53:08;;;;;;;9.27;2.67;;;10.60;99.90;;;;;;5046422;28;20021;-59
2023/05/04 11:55:36;;;;;;;8.65;2.25;;;10.70;99.90;;;;;;5046658;28;20091;-61
2023/05/04 11:58:06;;;;;;;9.43;1.60;;;10.80;99.90;;;;;;5046873;28;20414;-59
2023/05/04 12:00:40;;;;;;;14.85;2.63;;;10.70;99.90;;;;;;5034025;28;20036;-59
2023/05/04 12:03:11;;;;;;;4.68;1.88;;;10.70;99.90;;;;;;5044049;28;20089;-59
2023/05/04 12:05:49;;;;;;;10.35;2.03;;;10.70;99.90;;;;;;5043336;28;20029;-59
2023/05/04 12:08:24;;;;;;;19.95;3.50;;;10.60;99.90;;;;;;5038460;28;20027;-58
2023/05/04 12:11:12;;;;;;;29.52;2.65;;;10.50;99.90;;;;;;5046933;28;20075;-58
2023/05/04 12:13:41;;;;;;;36.08;4.32;;;10.40;99.90;;;;;;5048392;28;20032;-57
2023/05/04 12:16:17;;;;;;;17.70;4.38;;;10.30;99.90;;;;;;5018223;28;20026;-58
2023/05/04 12:18:46;;;;;;;19.20;3.03;;;10.20;99.90;;;;;;5045992;28;21062;-59
2023/05/04 12:21:22;;;;;;;32.42;5.68;;;10.10;99.90;;;;;;5046052;28;20033;-58
2023/05/04 12:23:50;;;;;;;14.48;2.70;;;10.10;99.90;;;;;;5044356;28;20033;-58
2023/05/04 12:26:17;;;;;;;13.55;2.13;;;10.00;99.90;;;;;;5022931;28;20371;-58
2023/05/04 12:28:45;;;;;;;13.13;2.45;;;10.00;99.90;;;;;;5047253;28;20124;-58
2023/05/04 12:31:12;;;;;;;10.00;2.30;;;10.00;99.90;;;;;;5047099;28;20104;-58
2023/05/04 12:33:40;;;;;;;12.13;2.10;;;9.90;99.90;;;;;;5046142;28;20033;-56
2023/05/04 12:36:09;;;;;;;12.70;3.08;;;9.90;99.90;;;;;;5042543;28;20025;-58
2023/05/04 12:38:39;;;;;;;10.15;2.35;;;9.80;99.90;;;;;;5045611;28;20057;-60
2023/05/04 12:41:09;;;;;;;10.73;2.83;;;9.80;99.90;;;;;;5040187;28;20037;-59
2023/05/04 12:43:37;;;;;;;13.23;2.60;;;9.70;99.90;;;;;;5039959;28;20391;-60
2023/05/04 12:46:05;;;;;;;9.52;2.10;;;9.60;99.90;;;;;;5041243;28;20033;-59
2023/05/04 12:48:33;;;;;;;6.13;1.83;;;9.60;99.90;;;;;;5039785;28;20041;-57
2023/05/04 12:51:03;;;;;;;6.82;2.47;;;9.60;99.90;;;;;;5040904;28;20041;-59
2023/05/04 12:53:31;;;;;;;7.05;1.80;;;9.60;99.90;;;;;;5044168;28;20390;-59